Time;durP1;ratioP1;P1;durP2;ratioP2;P2;SDS_P1;SDS_P2;PMS_P1;PMS_P2;Temp;Humidity;BMP_temperature;BMP_pressure;BME280_temperature;BME280_humidity;BME280_pressure;Samples;Min_cycle;Max_cycle;Signal;HPM_P1;HPM_P2
2023/03/08 00:00:42;;;;;;;5.63;2.28;;;-0.80;99.90;;;;;;5052135;28;20036;-89
2023/03/08 00:03:13;;;;;;;5.25;2.60;;;-0.90;99.90;;;;;;5049443;28;20123;-87
2023/03/08 00:05:39;;;;;;;4.55;2.58;;;-0.90;99.90;;;;;;5064361;28;20841;-89
2023/03/08 00:08:04;;;;;;;6.68;2.42;;;-0.90;99.90;;;;;;5065132;28;20052;-87
2023/03/08 00:10:30;;;;;;;6.20;2.47;;;-0.90;99.90;;;;;;5066765;28;20045;-89
2023/03/08 00:12:55;;;;;;;7.22;2.67;;;-0.90;99.90;;;;;;5049002;28;20490;-87
2023/03/08 00:15:21;;;;;;;4.00;2.50;;;-0.80;99.90;;;;;;5046964;28;20494;-89
2023/03/08 00:17:47;;;;;;;5.32;2.70;;;-0.80;99.90;;;;;;5064790;28;20611;-91
2023/03/08 00:20:13;;;;;;;4.32;2.53;;;-0.80;99.90;;;;;;5066884;28;20532;-90
2023/03/08 00:22:40;;;;;;;8.05;2.63;;;-0.80;99.90;;;;;;5050980;28;20469;-88
2023/03/08 00:25:08;;;;;;;6.15;2.50;;;-0.80;99.90;;;;;;5066305;28;20044;-87
2023/03/08 00:27:34;;;;;;;7.25;2.42;;;-0.90;99.90;;;;;;5065653;28;20044;-88
2023/03/08 00:30:01;;;;;;;10.43;2.53;;;-0.90;99.90;;;;;;5040425;28;20041;-87
2023/03/08 00:32:27;;;;;;;6.82;3.05;;;-0.90;99.90;;;;;;5069631;28;20129;-88
2023/03/08 00:34:53;;;;;;;6.10;3.38;;;-0.80;99.90;;;;;;5049077;28;20469;-87
2023/03/08 00:37:19;;;;;;;3.83;2.50;;;-0.90;99.90;;;;;;5032268;28;20041;-86
2023/03/08 00:39:51;;;;;;;6.22;2.33;;;-1.00;99.90;;;;;;5048400;28;20040;-88
2023/03/08 00:42:17;;;;;;;6.57;2.92;;;-1.00;99.90;;;;;;5049298;28;20056;-89
2023/03/08 00:44:43;;;;;;;6.25;2.45;;;-0.90;99.90;;;;;;5047483;28;20123;-89
2023/03/08 00:47:08;;;;;;;6.15;2.63;;;-1.00;99.90;;;;;;5064313;28;20151;-90
2023/03/08 00:49:34;;;;;;;4.53;2.50;;;-1.10;99.90;;;;;;5050440;28;20142;-89
2023/03/08 00:52:00;;;;;;;7.15;3.00;;;-1.00;99.90;;;;;;5048260;28;20047;-88
2023/03/08 00:54:25;;;;;;;5.80;2.55;;;-0.90;99.90;;;;;;5059863;28;20385;-89
2023/03/08 00:56:51;;;;;;;7.47;2.92;;;-1.10;99.90;;;;;;5074494;28;20124;-88
2023/03/08 00:59:17;;;;;;;7.32;2.67;;;-1.10;99.90;;;;;;5065804;28;20122;-89
2023/03/08 01:01:43;;;;;;;7.40;2.78;;;-1.10;99.90;;;;;;5049859;28;20048;-88
2023/03/08 01:04:08;;;;;;;5.22;2.42;;;-1.20;99.90;;;;;;5049908;28;20043;-90
2023/03/08 01:06:34;;;;;;;8.45;2.95;;;-1.20;99.90;;;;;;5050046;28;20052;-88
2023/03/08 01:09:00;;;;;;;8.35;2.90;;;-1.30;99.90;;;;;;5042923;28;20517;-91
2023/03/08 01:11:26;;;;;;;6.13;2.90;;;-1.30;99.90;;;;;;5043769;28;20052;-91
2023/03/08 01:13:53;;;;;;;6.95;2.67;;;-1.20;99.90;;;;;;5075129;28;20454;-89
2023/03/08 01:16:24;;;;;;;6.47;2.80;;;-1.30;99.90;;;;;;5049043;28;20040;-92
2023/03/08 01:18:50;;;;;;;4.97;2.95;;;-1.20;99.90;;;;;;5067777;28;20055;-90
2023/03/08 01:21:17;;;;;;;4.05;2.75;;;-1.30;99.90;;;;;;5070806;28;20048;-90
2023/03/08 01:23:42;;;;;;;8.35;2.95;;;-1.30;99.90;;;;;;5035968;28;20037;-90
2023/03/08 01:26:13;;;;;;;5.63;2.42;;;-1.30;99.90;;;;;;5025430;28;20506;-91
2023/03/08 01:28:51;;;;;;;8.30;2.80;;;-1.30;99.90;;;;;;5054023;28;20048;-88
2023/03/08 01:31:19;;;;;;;7.03;2.50;;;-1.30;99.90;;;;;;5052036;28;20057;-88
2023/03/08 01:33:46;;;;;;;6.32;2.75;;;-1.30;99.90;;;;;;5067787;28;20047;-90
2023/03/08 01:36:15;;;;;;;4.68;2.40;;;-1.30;99.90;;;;;;5068203;28;20052;-90
2023/03/08 01:38:41;;;;;;;6.53;2.50;;;-1.30;99.90;;;;;;5076069;28;20036;-91
2023/03/08 01:41:28;;;;;;;8.05;2.75;;;-1.30;99.90;;;;;;5066731;28;20075;-89
2023/03/08 01:43:54;;;;;;;9.45;3.00;;;-1.30;99.90;;;;;;5059632;28;20490;-90
2023/03/08 01:46:27;;;;;;;6.85;2.47;;;-1.30;99.90;;;;;;5045999;28;20160;-91
2023/03/08 01:49:19;;;;;;;6.28;3.15;;;-1.40;99.90;;;;;;5069080;28;20071;-91
2023/03/08 01:52:11;;;;;;;5.22;2.72;;;-1.40;99.90;;;;;;5052171;28;20501;-90
2023/03/08 01:54:47;;;;;;;5.70;2.50;;;-1.50;99.90;;;;;;5061708;28;20094;-91
2023/03/08 01:57:26;;;;;;;4.03;2.63;;;-1.50;99.90;;;;;;5068660;28;20041;-90
2023/03/08 01:59:57;;;;;;;4.35;2.70;;;-1.50;99.90;;;;;;5067770;28;20060;-89
2023/03/08 02:02:28;;;;;;;9.88;3.00;;;-1.50;99.90;;;;;;5067918;28;20210;-90
2023/03/08 02:04:54;;;;;;;4.13;2.88;;;-1.50;99.90;;;;;;5062804;28;20044;-88
2023/03/08 02:07:19;;;;;;;5.45;2.45;;;-1.40;99.90;;;;;;5049510;28;20117;-89
2023/03/08 02:09:46;;;;;;;5.03;2.78;;;-1.50;99.90;;;;;;5063844;28;20044;-91
2023/03/08 02:12:12;;;;;;;4.63;2.95;;;-1.50;99.90;;;;;;5018462;28;20534;-89
2023/03/08 02:14:42;;;;;;;4.65;3.05;;;-1.40;99.90;;;;;;5037028;28;20222;-92
2023/03/08 02:17:09;;;;;;;8.98;3.00;;;-1.50;99.90;;;;;;5052041;28;20051;-92
2023/03/08 02:19:45;;;;;;;6.53;3.20;;;-1.60;99.90;;;;;;5049313;28;20060;-90
2023/03/08 02:22:13;;;;;;;6.47;3.30;;;-1.60;99.90;;;;;;5047215;28;20040;-91
2023/03/08 02:24:39;;;;;;;9.85;4.05;;;-1.60;99.90;;;;;;5071124;28;20041;-91
2023/03/08 02:27:20;;;;;;;8.07;3.38;;;-1.60;99.90;;;;;;5066641;28;20217;-90
2023/03/08 02:29:46;;;;;;;8.73;3.40;;;-1.60;99.90;;;;;;5055018;28;20101;-91
2023/03/08 02:32:11;;;;;;;6.15;3.60;;;-1.60;99.90;;;;;;5047331;28;20048;-91
2023/03/08 02:34:37;;;;;;;5.50;3.70;;;-1.70;99.90;;;;;;5052463;28;20036;-91
2023/03/08 02:37:03;;;;;;;8.05;4.07;;;-1.70;99.90;;;;;;5047045;28;20048;-91
2023/03/08 02:39:29;;;;;;;9.00;4.20;;;-1.70;99.90;;;;;;5032888;28;20048;-89
2023/03/08 02:41:55;;;;;;;8.18;4.00;;;-1.70;99.90;;;;;;5064631;28;20383;-90
2023/03/08 02:44:21;;;;;;;13.38;4.60;;;-1.70;99.90;;;;;;5032354;28;21078;-91
2023/03/08 02:46:47;;;;;;;8.18;4.32;;;-1.70;99.90;;;;;;5050560;28;20049;-90
2023/03/08 02:49:12;;;;;;;10.57;4.47;;;-1.70;99.90;;;;;;5072352;28;20059;-90
2023/03/08 02:51:38;;;;;;;10.80;5.30;;;-1.70;99.90;;;;;;5032631;28;20075;-90
2023/03/08 02:54:04;;;;;;;8.13;5.05;;;-1.70;99.90;;;;;;5071414;28;20044;-91
2023/03/08 02:56:29;;;;;;;10.65;5.85;;;-1.80;99.90;;;;;;5034072;28;20037;-90
2023/03/08 02:58:55;;;;;;;15.02;6.57;;;-1.80;99.90;;;;;;5035509;28;20052;-91
2023/03/08 03:01:21;;;;;;;13.80;6.50;;;-1.80;99.90;;;;;;5060424;28;20063;-90
2023/03/08 03:03:47;;;;;;;14.27;7.13;;;-1.80;99.90;;;;;;5038483;28;20053;-88
2023/03/08 03:06:15;;;;;;;13.77;7.63;;;-1.80;99.90;;;;;;5034813;28;20747;-91
2023/03/08 03:08:40;;;;;;;15.05;7.20;;;-1.80;99.90;;;;;;5067143;28;20059;-90
2023/03/08 03:11:18;;;;;;;13.63;7.65;;;-1.80;99.90;;;;;;5049985;28;20052;-92
2023/03/08 03:13:44;;;;;;;13.27;7.45;;;-1.80;99.90;;;;;;5072025;28;20055;-92
2023/03/08 03:16:15;;;;;;;19.25;8.68;;;-1.70;99.90;;;;;;5040596;28;20052;-88
2023/03/08 03:18:41;;;;;;;17.45;8.93;;;-1.70;99.90;;;;;;5051307;28;20187;-90
2023/03/08 03:21:10;;;;;;;17.05;9.05;;;-1.70;99.90;;;;;;5070136;28;20068;-92
2023/03/08 03:23:35;;;;;;;16.60;8.93;;;-1.70;99.90;;;;;;5059184;28;20045;-91
2023/03/08 03:26:16;;;;;;;18.95;9.70;;;-1.70;99.90;;;;;;5051230;28;20067;-87
2023/03/08 03:28:42;;;;;;;19.98;9.50;;;-1.70;99.90;;;;;;5072030;28;20036;-91
2023/03/08 03:31:15;;;;;;;18.08;9.85;;;-1.70;99.90;;;;;;5066134;28;20544;-91
2023/03/08 03:33:41;;;;;;;21.38;11.48;;;-1.70;99.90;;;;;;5071546;28;20744;-91
2023/03/08 03:36:09;;;;;;;26.38;11.90;;;-1.70;99.90;;;;;;5053699;28;20079;-90
2023/03/08 03:38:35;;;;;;;20.65;11.23;;;-1.70;99.90;;;;;;5054798;28;20049;-91
2023/03/08 03:41:07;;;;;;;20.30;11.13;;;-1.60;99.90;;;;;;5052422;28;20049;-92
2023/03/08 03:43:33;;;;;;;23.42;11.43;;;-1.70;99.90;;;;;;5049574;28;20048;-91
2023/03/08 03:46:01;;;;;;;22.92;10.70;;;-1.60;99.90;;;;;;5069539;28;20053;-92
2023/03/08 03:48:27;;;;;;;19.65;11.07;;;-1.60;99.90;;;;;;5082263;28;20044;-91
2023/03/08 03:51:02;;;;;;;22.30;11.18;;;-1.60;99.90;;;;;;5052974;28;20044;-91
2023/03/08 03:53:29;;;;;;;19.80;11.38;;;-1.70;99.90;;;;;;5055562;28;20500;-89
2023/03/08 03:55:55;;;;;;;18.90;11.10;;;-1.70;99.90;;;;;;5069355;28;20521;-90
2023/03/08 03:58:21;;;;;;;24.52;12.93;;;-1.80;99.90;;;;;;5067332;28;20127;-91
2023/03/08 04:00:47;;;;;;;19.98;12.00;;;-1.80;99.90;;;;;;5055981;28;20044;-89
2023/03/08 04:03:12;;;;;;;19.88;12.13;;;-1.80;99.90;;;;;;5065729;28;20486;-88
2023/03/08 04:05:38;;;;;;;24.75;11.95;;;-1.80;99.90;;;;;;5051670;28;20116;-90
2023/03/08 04:08:07;;;;;;;23.63;12.52;;;-1.80;99.90;;;;;;5067915;28;20048;-89
2023/03/08 04:10:32;;;;;;;25.30;12.68;;;-1.80;99.90;;;;;;5055897;28;20048;-89
2023/03/08 04:12:58;;;;;;;20.80;12.27;;;-1.80;99.90;;;;;;5074066;28;20051;-89
2023/03/08 04:15:24;;;;;;;25.02;12.75;;;-1.80;99.90;;;;;;5053621;28;20056;-87
2023/03/08 04:17:51;;;;;;;22.85;13.15;;;-1.90;99.90;;;;;;5044162;28;20051;-89
2023/03/08 04:20:16;;;;;;;24.73;13.27;;;-1.80;99.90;;;;;;5049937;28;20474;-91
2023/03/08 04:22:42;;;;;;;25.83;14.35;;;-1.80;99.90;;;;;;5067768;28;20131;-90
2023/03/08 04:25:08;;;;;;;29.10;14.18;;;-1.80;99.90;;;;;;5051489;28;20037;-91
2023/03/08 04:27:34;;;;;;;23.40;13.27;;;-1.80;99.90;;;;;;5035325;28;20048;-90
2023/03/08 04:29:59;;;;;;;28.08;13.88;;;-1.80;99.90;;;;;;5035520;28;20045;-89
2023/03/08 04:32:25;;;;;;;24.52;13.88;;;-1.80;99.90;;;;;;5050731;28;20055;-90
2023/03/08 04:34:51;;;;;;;25.27;13.68;;;-1.80;99.90;;;;;;5050786;28;20038;-88
2023/03/08 04:37:16;;;;;;;22.83;13.98;;;-1.70;99.90;;;;;;5068059;28;20067;-88
2023/03/08 04:39:42;;;;;;;25.58;13.40;;;-1.80;99.90;;;;;;5066939;28;20481;-89
2023/03/08 04:42:07;;;;;;;27.70;14.88;;;-1.80;99.90;;;;;;5034219;28;20044;-89
2023/03/08 04:44:33;;;;;;;25.80;14.38;;;-1.80;99.90;;;;;;5028838;28;20101;-92
2023/03/08 04:46:59;;;;;;;28.55;14.93;;;-1.80;99.90;;;;;;5025555;28;20362;-87
2023/03/08 04:49:25;;;;;;;28.70;15.27;;;-1.80;99.90;;;;;;5037354;28;20087;-89
2023/03/08 04:51:50;;;;;;;26.60;15.40;;;-1.80;99.90;;;;;;5033356;28;20045;-90
2023/03/08 04:54:16;;;;;;;27.95;15.02;;;-1.80;99.90;;;;;;5038371;28;20072;-90
2023/03/08 04:56:42;;;;;;;25.98;14.88;;;-1.80;99.90;;;;;;5029602;28;20044;-90
2023/03/08 04:59:08;;;;;;;23.42;14.80;;;-1.80;99.90;;;;;;5055295;28;20132;-87
2023/03/08 05:01:33;;;;;;;27.33;15.40;;;-1.80;99.90;;;;;;5054479;28;20048;-87
2023/03/08 05:03:59;;;;;;;31.85;15.30;;;-1.80;99.90;;;;;;5040168;28;20044;-89
2023/03/08 05:06:26;;;;;;;29.35;16.70;;;-1.80;99.90;;;;;;5044233;28;20044;-87
2023/03/08 05:08:52;;;;;;;28.38;16.98;;;-1.80;99.90;;;;;;5041278;28;20508;-87
2023/03/08 05:11:24;;;;;;;30.13;16.52;;;-1.80;99.90;;;;;;5038241;28;21229;-88
2023/03/08 05:13:52;;;;;;;28.52;18.17;;;-1.80;99.90;;;;;;5055958;28;20051;-87
2023/03/08 05:16:18;;;;;;;28.05;17.42;;;-1.90;99.90;;;;;;5047516;28;20040;-88
2023/03/08 05:18:44;;;;;;;28.48;17.25;;;-1.90;99.90;;;;;;5061701;28;20056;-89
2023/03/08 05:21:16;;;;;;;30.55;17.13;;;-1.90;99.90;;;;;;5065308;28;20053;-87
2023/03/08 05:23:42;;;;;;;32.75;18.13;;;-2.00;99.90;;;;;;5081613;28;20083;-88
2023/03/08 05:26:10;;;;;;;32.58;18.08;;;-2.00;99.90;;;;;;5033919;28;20127;-88
2023/03/08 05:28:36;;;;;;;29.10;17.33;;;-2.10;99.90;;;;;;5040574;28;20387;-86
2023/03/08 05:31:06;;;;;;;27.10;17.13;;;-2.10;99.90;;;;;;5037194;28;20051;-86
2023/03/08 05:33:33;;;;;;;29.77;16.05;;;-2.20;99.90;;;;;;5054090;28;20039;-86
2023/03/08 05:35:58;;;;;;;25.35;17.35;;;-2.20;99.90;;;;;;5057668;28;20032;-87
2023/03/08 05:38:24;;;;;;;24.02;17.02;;;-2.30;99.90;;;;;;5034846;28;20101;-88
2023/03/08 05:40:51;;;;;;;29.10;17.60;;;-2.30;99.90;;;;;;5048548;28;20041;-87
2023/03/08 05:43:17;;;;;;;25.92;16.73;;;-2.30;99.90;;;;;;5045705;28;20081;-90
2023/03/08 05:45:43;;;;;;;26.70;16.65;;;-2.40;99.90;;;;;;5051708;28;20169;-91
2023/03/08 05:48:09;;;;;;;34.63;18.70;;;-2.30;99.90;;;;;;5060157;28;20672;-92
2023/03/08 05:50:36;;;;;;;26.83;18.30;;;-2.40;99.90;;;;;;5067731;28;20055;-91
2023/03/08 05:53:02;;;;;;;30.50;18.13;;;-2.40;99.90;;;;;;5074257;28;20047;-88
2023/03/08 05:55:28;;;;;;;29.15;17.98;;;-2.40;98.60;;;;;;5030409;28;20044;-89
2023/03/08 05:57:54;;;;;;;33.35;19.13;;;-2.40;97.10;;;;;;5048578;28;20052;-89
2023/03/08 06:00:20;;;;;;;32.95;18.90;;;-2.50;95.20;;;;;;5055656;28;20056;-89
2023/03/08 06:02:45;;;;;;;26.25;17.65;;;-2.40;94.10;;;;;;5061345;28;20115;-87
2023/03/08 06:05:11;;;;;;;30.88;18.95;;;-2.40;91.80;;;;;;5069480;28;20074;-87
2023/03/08 06:07:37;;;;;;;29.50;18.55;;;-2.50;90.00;;;;;;5057799;28;20131;-86
2023/03/08 06:10:03;;;;;;;29.67;19.10;;;-2.50;86.20;;;;;;5038832;28;20064;-88
2023/03/08 06:12:29;;;;;;;32.72;19.65;;;-2.50;83.30;;;;;;5051518;28;20053;-89
2023/03/08 06:14:55;;;;;;;29.85;19.23;;;-2.60;83.40;;;;;;5052110;28;20124;-88
2023/03/08 06:17:20;;;;;;;30.88;19.45;;;-2.50;83.40;;;;;;5044530;28;20049;-88
2023/03/08 06:19:46;;;;;;;29.63;19.13;;;-2.50;82.30;;;;;;5052367;28;20151;-89
2023/03/08 06:22:14;;;;;;;34.30;20.27;;;-2.50;82.00;;;;;;5039075;28;20048;-87
2023/03/08 06:24:39;;;;;;;36.10;21.10;;;-2.50;80.70;;;;;;5071971;28;20037;-88
2023/03/08 06:27:05;;;;;;;30.23;18.88;;;-2.50;78.40;;;;;;5030660;28;20127;-88
2023/03/08 06:29:30;;;;;;;36.70;19.55;;;-2.50;75.70;;;;;;5040602;28;20090;-88
2023/03/08 06:31:56;;;;;;;32.03;19.40;;;-2.50;75.30;;;;;;5071137;28;20501;-87
2023/03/08 06:34:22;;;;;;;32.25;20.00;;;-2.50;73.10;;;;;;5040774;28;20051;-88
2023/03/08 06:36:47;;;;;;;34.08;20.92;;;-2.50;73.60;;;;;;5037407;28;20115;-89
2023/03/08 06:39:13;;;;;;;37.30;22.27;;;-2.50;74.10;;;;;;5019532;28;20059;-88
2023/03/08 06:41:39;;;;;;;35.42;21.50;;;-2.50;74.30;;;;;;5025973;28;20049;-87
2023/03/08 06:44:05;;;;;;;37.65;21.63;;;-2.40;74.40;;;;;;5035271;28;20155;-87
2023/03/08 06:46:30;;;;;;;36.92;21.45;;;-2.40;74.50;;;;;;5034867;28;20137;-86
2023/03/08 06:48:56;;;;;;;32.90;20.23;;;-2.30;77.40;;;;;;5048899;28;20049;-86
2023/03/08 06:51:22;;;;;;;34.17;19.55;;;-2.30;80.50;;;;;;5058645;28;20393;-86
2023/03/08 06:53:47;;;;;;;38.50;21.02;;;-2.20;82.40;;;;;;5032809;28;20048;-87
2023/03/08 06:56:15;;;;;;;34.20;20.55;;;-2.10;85.90;;;;;;5077319;28;20100;-87
2023/03/08 06:58:41;;;;;;;32.97;20.52;;;-2.00;89.70;;;;;;5062931;28;20054;-89
2023/03/08 07:01:08;;;;;;;31.45;20.70;;;-2.00;91.30;;;;;;5067932;28;20093;-86
2023/03/08 07:03:34;;;;;;;31.10;20.35;;;-1.90;92.60;;;;;;5051573;28;20041;-86
2023/03/08 07:06:02;;;;;;;35.80;21.42;;;-1.90;94.20;;;;;;5059626;28;20048;-86
2023/03/08 07:08:28;;;;;;;37.55;21.27;;;-1.80;95.70;;;;;;5062448;28;20066;-87
2023/03/08 07:10:54;;;;;;;33.03;21.67;;;-1.70;98.10;;;;;;5049505;28;20336;-86
2023/03/08 07:13:22;;;;;;;35.55;22.58;;;-1.60;99.90;;;;;;5049412;28;20098;-86
2023/03/08 07:15:48;;;;;;;38.78;21.88;;;-1.40;99.90;;;;;;5049733;28;20049;-86
2023/03/08 07:18:14;;;;;;;38.58;22.95;;;-1.30;99.90;;;;;;5059718;28;20063;-86
2023/03/08 07:20:43;;;;;;;37.55;21.80;;;-1.10;99.90;;;;;;5049348;28;20216;-86
2023/03/08 07:23:08;;;;;;;38.45;22.77;;;-0.90;99.90;;;;;;5049086;28;20048;-86
2023/03/08 07:25:36;;;;;;;33.92;21.33;;;-0.90;99.90;;;;;;5032433;28;20052;-86
2023/03/08 07:28:02;;;;;;;34.75;21.08;;;-0.80;99.90;;;;;;5051582;28;20154;-87
2023/03/08 07:30:27;;;;;;;36.08;20.98;;;-0.70;99.90;;;;;;5043030;28;20079;-86
2023/03/08 07:32:53;;;;;;;39.38;21.10;;;-0.70;99.90;;;;;;5048489;28;20045;-85
2023/03/08 07:35:19;;;;;;;30.42;20.15;;;-0.60;99.90;;;;;;5065841;28;20498;-85
2023/03/08 07:37:46;;;;;;;28.80;18.85;;;-0.50;99.90;;;;;;5035008;28;20589;-86
2023/03/08 07:40:15;;;;;;;27.60;18.23;;;-0.50;99.90;;;;;;5052160;28;20059;-87
2023/03/08 07:42:41;;;;;;;29.52;18.17;;;-0.50;99.90;;;;;;5055285;28;20044;-86
2023/03/08 07:45:07;;;;;;;32.10;19.10;;;-0.40;99.90;;;;;;5035166;28;20060;-86
2023/03/08 07:47:33;;;;;;;29.63;17.88;;;-0.40;99.90;;;;;;5034930;28;20051;-86
2023/03/08 07:49:59;;;;;;;24.77;17.98;;;-0.40;99.90;;;;;;5051608;28;20048;-86
2023/03/08 07:52:28;;;;;;;22.60;16.45;;;-0.40;99.90;;;;;;5046801;28;20056;-85
2023/03/08 07:54:54;;;;;;;27.08;16.90;;;-0.30;99.90;;;;;;5061185;28;20052;-86
2023/03/08 07:57:20;;;;;;;26.38;16.92;;;-0.20;99.90;;;;;;5054267;28;20130;-86
2023/03/08 07:59:46;;;;;;;22.88;15.43;;;-0.10;99.90;;;;;;5035429;28;20497;-86
2023/03/08 08:02:13;;;;;;;21.55;15.95;;;-0.10;99.90;;;;;;5050467;28;20141;-85
2023/03/08 08:04:39;;;;;;;20.15;14.77;;;0.00;99.90;;;;;;5052013;28;20127;-86
2023/03/08 08:07:06;;;;;;;22.35;15.07;;;0.10;99.90;;;;;;5061175;28;20525;-86
2023/03/08 08:09:32;;;;;;;23.63;14.77;;;0.20;99.90;;;;;;5045091;28;20181;-86
2023/03/08 08:11:58;;;;;;;25.05;14.07;;;0.20;99.90;;;;;;5038552;28;20076;-85
2023/03/08 08:14:24;;;;;;;18.33;13.00;;;0.30;99.90;;;;;;5067258;28;20229;-85
2023/03/08 08:16:50;;;;;;;18.00;13.32;;;0.50;99.90;;;;;;5053132;28;20048;-85
2023/03/08 08:19:16;;;;;;;15.98;13.00;;;0.40;99.90;;;;;;5047706;28;20088;-85
2023/03/08 08:21:42;;;;;;;19.65;12.60;;;0.50;99.90;;;;;;5048518;28;20397;-85
2023/03/08 08:24:08;;;;;;;20.17;13.35;;;0.50;99.90;;;;;;5031311;28;20044;-85
2023/03/08 08:26:33;;;;;;;18.17;12.15;;;0.50;99.90;;;;;;5064855;28;20060;-85
2023/03/08 08:28:59;;;;;;;18.67;11.77;;;0.50;99.90;;;;;;5048557;28;20045;-85
2023/03/08 08:31:29;;;;;;;16.80;12.10;;;0.60;99.90;;;;;;5044728;28;20048;-84
2023/03/08 08:33:56;;;;;;;15.75;11.10;;;0.60;99.90;;;;;;5043177;28;20056;-85
2023/03/08 08:36:23;;;;;;;15.65;11.40;;;0.60;99.90;;;;;;5037134;28;20041;-84
2023/03/08 08:38:49;;;;;;;15.45;10.98;;;0.70;99.90;;;;;;5051322;28;20409;-84
2023/03/08 08:41:17;;;;;;;14.15;10.85;;;0.70;99.90;;;;;;5015151;28;20049;-84
2023/03/08 08:43:44;;;;;;;14.43;10.60;;;0.80;99.90;;;;;;5061094;28;20485;-84
2023/03/08 08:46:10;;;;;;;13.82;10.73;;;0.90;99.90;;;;;;5066940;28;20052;-84
2023/03/08 08:48:37;;;;;;;12.48;9.82;;;0.90;99.90;;;;;;5050797;28;20053;-86
2023/03/08 08:51:03;;;;;;;14.20;10.45;;;1.00;99.90;;;;;;5048455;28;20045;-85
2023/03/08 08:53:29;;;;;;;13.98;9.82;;;1.10;99.90;;;;;;5060160;28;20048;-85
2023/03/08 08:55:56;;;;;;;14.68;10.40;;;1.20;99.90;;;;;;5031532;28;20052;-85
2023/03/08 08:58:22;;;;;;;16.70;9.38;;;1.20;99.90;;;;;;5031398;28;20049;-84
2023/03/08 09:00:48;;;;;;;13.10;9.43;;;1.40;99.90;;;;;;5028227;28;20497;-84
2023/03/08 09:03:14;;;;;;;11.50;8.90;;;1.50;99.90;;;;;;5058053;28;20049;-84
2023/03/08 09:05:42;;;;;;;12.27;9.18;;;1.60;99.90;;;;;;5038949;28;20048;-84
2023/03/08 09:08:08;;;;;;;11.23;8.82;;;1.70;99.90;;;;;;5048105;28;20053;-86
2023/03/08 09:10:36;;;;;;;10.75;8.30;;;1.70;99.90;;;;;;5067793;28;20048;-84
2023/03/08 09:13:02;;;;;;;15.95;11.43;;;1.80;99.90;;;;;;5048462;28;20155;-84
2023/03/08 09:15:28;;;;;;;26.75;15.18;;;1.90;99.90;;;;;;5039508;28;20036;-84
2023/03/08 09:17:53;;;;;;;11.82;9.80;;;2.00;99.90;;;;;;5034509;28;20113;-85
2023/03/08 09:20:20;;;;;;;23.90;13.23;;;2.10;99.90;;;;;;5049550;28;20156;-85
2023/03/08 09:22:46;;;;;;;22.52;12.50;;;2.20;99.90;;;;;;5051123;28;20049;-84
2023/03/08 09:25:12;;;;;;;20.35;11.80;;;2.30;99.90;;;;;;5049987;28;20200;-84
2023/03/08 09:27:39;;;;;;;17.80;9.95;;;2.40;99.90;;;;;;5034189;28;20056;-85
2023/03/08 09:30:08;;;;;;;11.07;8.65;;;2.50;99.90;;;;;;5034941;28;20114;-84
2023/03/08 09:32:35;;;;;;;19.05;10.18;;;2.60;99.90;;;;;;5049715;28;20060;-83
2023/03/08 09:35:01;;;;;;;13.40;9.60;;;2.50;99.90;;;;;;5015001;28;20098;-84
2023/03/08 09:37:27;;;;;;;9.95;8.35;;;2.60;99.90;;;;;;5044275;28;20067;-83
2023/03/08 09:39:53;;;;;;;16.05;10.25;;;2.70;99.90;;;;;;5066944;28;20036;-83
2023/03/08 09:42:32;;;;;;;10.38;7.55;;;2.80;99.90;;;;;;5034456;28;20333;-84
2023/03/08 09:45:29;;;;;;;16.13;10.32;;;2.90;99.90;;;;;;5061321;28;20044;-84
2023/03/08 09:48:07;;;;;;;8.75;7.10;;;2.90;99.90;;;;;;5054979;28;20060;-84
2023/03/08 09:50:42;;;;;;;9.10;7.47;;;3.10;99.90;;;;;;5056325;28;20052;-84
2023/03/08 09:53:20;;;;;;;11.57;8.70;;;3.10;99.90;;;;;;5043598;28;20049;-84
2023/03/08 09:55:59;;;;;;;16.27;10.45;;;3.20;99.50;;;;;;5034577;28;20447;-84
2023/03/08 09:58:47;;;;;;;10.90;7.75;;;3.30;93.70;;;;;;5068323;28;20049;-84
2023/03/08 10:01:42;;;;;;;11.65;8.38;;;3.40;88.30;;;;;;5053912;28;20114;-86
2023/03/08 10:04:28;;;;;;;13.25;8.27;;;3.50;74.30;;;;;;5051263;28;20041;-84
2023/03/08 10:07:32;;;;;;;10.88;7.30;;;3.60;71.10;;;;;;5051914;28;20619;-84
2023/03/08 10:10:09;;;;;;;8.48;7.35;;;3.80;63.80;;;;;;5053838;28;20041;-84
2023/03/08 10:13:13;;;;;;;9.35;7.68;;;4.00;44.10;;;;;;5034434;28;20677;-85
2023/03/08 10:15:48;;;;;;;9.95;7.40;;;4.10;30.90;;;;;;5029133;28;20049;-84
2023/03/08 10:18:41;;;;;;;40.80;18.00;;;4.20;18.40;;;;;;5063539;28;20095;-86
2023/03/08 10:21:11;;;;;;;15.68;7.80;;;4.30;15.60;;;;;;5056469;28;20127;-85
2023/03/08 10:23:40;;;;;;;8.38;6.20;;;4.30;4.00;;;;;;5052657;28;20040;-85
2023/03/08 10:26:11;;;;;;;9.65;6.47;;;4.30;1.00;;;;;;5069336;28;20051;-85
2023/03/08 10:28:37;;;;;;;7.85;6.70;;;4.20;1.00;;;;;;5050353;28;20055;-85
2023/03/08 10:31:20;;;;;;;10.23;6.35;;;4.10;1.00;;;;;;5050399;28;20141;-85
2023/03/08 10:33:47;;;;;;;8.45;6.75;;;4.20;1.00;;;;;;5050405;28;20047;-85
2023/03/08 10:36:20;;;;;;;8.90;5.75;;;4.20;1.00;;;;;;5067262;28;20056;-85
2023/03/08 10:39:06;;;;;;;13.52;6.88;;;4.20;1.00;;;;;;5053215;28;20044;-85
2023/03/08 10:41:35;;;;;;;;;;;4.30;1.00;;;;;;5050166;28;20055;-86
2023/03/08 10:44:01;;;;;;;13.55;6.78;;;4.40;1.00;;;;;;5064892;28;19928;-86
2023/03/08 10:46:32;;;;;;;7.97;5.55;;;4.60;1.00;;;;;;5049647;28;20049;-84
2023/03/08 10:49:27;;;;;;;9.43;6.30;;;4.90;1.00;;;;;;5063249;28;20107;-84
2023/03/08 10:51:58;;;;;;;6.50;4.22;;;5.00;1.00;;;;;;5016925;28;20139;-86
2023/03/08 10:54:26;;;;;;;5.60;4.20;;;5.20;1.00;;;;;;5032665;28;20084;-86
2023/03/08 10:57:00;;;;;;;8.88;5.30;;;5.30;1.00;;;;;;5050311;28;20045;-86
2023/03/08 10:59:32;;;;;;;9.63;5.70;;;5.40;1.00;;;;;;5032730;28;20048;-86
2023/03/08 11:02:01;;;;;;;8.00;4.25;;;5.50;1.00;;;;;;5032780;28;20049;-86
2023/03/08 11:04:29;;;;;;;5.53;3.28;;;5.70;1.00;;;;;;5056461;28;20049;-86
2023/03/08 11:06:55;;;;;;;3.95;3.28;;;5.80;99.90;;;;;;5062864;28;20049;-86
2023/03/08 11:09:29;;;;;;;5.90;2.70;;;6.00;99.90;;;;;;5057930;28;20126;-86
2023/03/08 11:11:56;;;;;;;4.13;2.50;;;6.10;99.90;;;;;;5052460;28;20048;-86
2023/03/08 11:14:28;;;;;;;4.03;2.20;;;6.20;99.90;;;;;;5069556;28;20050;-86
2023/03/08 11:17:09;;;;;;;4.68;2.38;;;6.30;99.90;;;;;;5051630;28;20675;-87
2023/03/08 11:20:14;;;;;;;6.05;2.25;;;6.50;99.90;;;;;;5051673;28;20559;-86
2023/03/08 11:22:52;;;;;;;2.85;1.75;;;6.70;99.90;;;;;;5026783;28;20487;-86
2023/03/08 11:25:50;;;;;;;3.17;1.80;;;6.80;99.90;;;;;;5056928;28;20098;-86
2023/03/08 11:28:28;;;;;;;4.38;2.33;;;6.90;99.90;;;;;;5034022;28;20049;-87
2023/03/08 11:31:05;;;;;;;3.97;2.10;;;6.90;99.90;;;;;;5049708;28;20049;-87
2023/03/08 11:33:40;;;;;;;6.82;2.17;;;6.80;99.90;;;;;;5052325;28;20041;-87
2023/03/08 11:36:09;;;;;;;2.55;1.10;;;6.80;99.90;;;;;;5067176;28;20131;-86
2023/03/08 11:38:35;;;;;;;5.15;1.52;;;6.80;99.90;;;;;;5051821;28;20509;-87
2023/03/08 11:41:22;;;;;;;4.75;1.77;;;6.70;94.00;;;;;;5035070;28;20077;-87
2023/03/08 11:43:57;;;;;;;3.72;1.60;;;6.80;5.30;;;;;;5061434;28;20139;-86
2023/03/08 11:46:26;;;;;;;3.70;1.70;;;6.80;24.60;;;;;;5044234;28;20133;-87
2023/03/08 11:49:16;;;;;;;5.15;2.22;;;6.80;1.00;;;;;;5047064;28;20405;-86
2023/03/08 11:52:14;;;;;;;6.35;3.22;;;6.70;1.00;;;;;;5055827;28;20409;-87
2023/03/08 11:55:09;;;;;;;7.20;4.00;;;6.70;1.00;;;;;;5041724;28;20105;-87
2023/03/08 11:57:41;;;;;;;6.93;3.30;;;6.60;1.00;;;;;;5038738;28;20044;-86
2023/03/08 12:00:25;;;;;;;5.20;2.85;;;6.50;1.00;;;;;;5067664;28;20048;-86
2023/03/08 12:02:52;;;;;;;5.32;1.95;;;6.40;1.00;;;;;;5065069;28;20041;-87
2023/03/08 12:05:43;;;;;;;7.43;2.33;;;6.30;1.00;;;;;;5061781;28;20041;-86
2023/03/08 12:08:20;;;;;;;4.72;2.63;;;6.20;1.00;;;;;;5048500;28;20482;-87
2023/03/08 12:10:53;;;;;;;4.40;2.75;;;6.20;1.00;;;;;;5051419;28;20044;-86
2023/03/08 12:13:30;;;;;;;5.82;2.28;;;6.10;1.00;;;;;;5050602;28;20049;-87
2023/03/08 12:16:02;;;;;;;4.95;2.20;;;6.10;1.00;;;;;;5061149;28;20489;-87
2023/03/08 12:18:41;;;;;;;4.32;1.90;;;6.00;1.00;;;;;;5048709;28;20400;-87
2023/03/08 12:21:10;;;;;;;6.15;2.10;;;5.90;1.00;;;;;;5051860;28;20057;-86
2023/03/08 12:23:55;;;;;;;7.13;2.70;;;5.90;1.00;;;;;;5054124;28;20036;-87
2023/03/08 12:26:39;;;;;;;6.10;2.75;;;5.90;1.00;;;;;;5049223;28;20204;-86
2023/03/08 12:29:22;;;;;;;5.55;2.35;;;5.90;1.00;;;;;;5048580;28;20090;-86
2023/03/08 12:31:49;;;;;;;6.38;3.42;;;5.90;1.00;;;;;;5049230;28;20071;-85
2023/03/08 12:34:28;;;;;;;7.60;2.50;;;5.90;1.00;;;;;;5049124;28;20135;-86
2023/03/08 12:36:54;;;;;;;5.70;2.42;;;6.10;1.00;;;;;;5041342;28;20376;-86
2023/03/08 12:39:35;;;;;;;5.55;2.47;;;6.20;1.00;;;;;;5031755;28;21200;-86
2023/03/08 12:42:10;;;;;;;6.05;2.88;;;6.30;1.00;;;;;;5048385;28;20080;-86
2023/03/08 12:44:37;;;;;;;4.50;1.75;;;6.60;1.00;;;;;;5049825;28;20044;-85
2023/03/08 12:47:20;;;;;;;5.47;2.10;;;6.70;1.00;;;;;;5050355;28;20114;-86
2023/03/08 12:49:51;;;;;;;5.05;2.10;;;6.70;1.00;;;;;;5047789;28;20074;-86
2023/03/08 12:52:16;;;;;;;3.65;1.60;;;6.80;1.00;;;;;;5031737;28;20359;-86